KDMN/DMN METAR and TAF weather

Enter ICAO airport designator
Station Type Date Time Source
KDMN METAR 2022/01/27 22:53 UTC NOAA

KDMN 272253Z AUTO 27011KT 10SM CLR 16/M10 A3009 RMK AO2 SLP166 T01611100


Station Type Date Time Source
KDMN Decoded METAR 2022/01/27 22:53 UTC NOAA

DEMING MUNICIPAL AIRPORT, NM, United States (KDMN) 32-16N 107-43W 1311M
Jan 27, 2022 - 05:53 PM EST / 2022.01.27 2253 UTC
Wind: from the W (270 degrees) at 13 MPH (11 KT):0
Visibility: 10 mile(s):0
Sky conditions: clear
Temperature: 61.0 F (16.1 C)
Dew Point: 14.0 F (-10.0 C)
Relative Humidity: 15%
Pressure (altimeter): 30.09 in. Hg (1018 hPa)
ob: KDMN 272253Z AUTO 27011KT 10SM CLR 16/M10 A3009 RMK AO2 SLP166 T01611100
cycle: 23

Station Type Date Time Source
KDMN TAF 2022/01/27 18:51 UTC NOAA

TAF KDMN 271749Z 2718/2818 05005KT P6SM SCT250
FM280500 03016G25KT P6SM FEW250 WS020/03035KT
FM281400 06016G26KT P6SM FEW250

Example: see airport list